sensor_id;sensor_type;location;lat;lon;timestamp;P1;durP1;ratioP1;P2;durP2;ratioP2
71172;SDS011;58875;51.996;4.504;2023-03-01T00:00:54;21.84;;;21.84;;
71172;SDS011;58875;51.996;4.504;2023-03-01T00:03:25;21.10;;;21.09;;
71172;SDS011;58875;51.996;4.504;2023-03-01T00:05:58;21.16;;;21.10;;
71172;SDS011;58875;51.996;4.504;2023-03-01T00:08:32;21.16;;;21.07;;
71172;SDS011;58875;51.996;4.504;2023-03-01T00:11:15;21.17;;;21.17;;
71172;SDS011;58875;51.996;4.504;2023-03-01T00:13:44;21.30;;;21.21;;
71172;SDS011;58875;51.996;4.504;2023-03-01T00:16:13;21.08;;;20.94;;
71172;SDS011;58875;51.996;4.504;2023-03-01T00:18:40;21.39;;;21.39;;
71172;SDS011;58875;51.996;4.504;2023-03-01T00:21:06;20.95;;;20.95;;
71172;SDS011;58875;51.996;4.504;2023-03-01T00:23:33;21.46;;;21.45;;
71172;SDS011;58875;51.996;4.504;2023-03-01T00:25:59;21.20;;;21.20;;
71172;SDS011;58875;51.996;4.504;2023-03-01T00:28:25;21.38;;;21.38;;
71172;SDS011;58875;51.996;4.504;2023-03-01T00:30:51;21.79;;;21.67;;
71172;SDS011;58875;51.996;4.504;2023-03-01T00:33:16;22.00;;;21.94;;
71172;SDS011;58875;51.996;4.504;2023-03-01T00:35:43;21.90;;;21.84;;
71172;SDS011;58875;51.996;4.504;2023-03-01T00:38:09;21.34;;;21.34;;
71172;SDS011;58875;51.996;4.504;2023-03-01T00:40:35;22.37;;;22.37;;
71172;SDS011;58875;51.996;4.504;2023-03-01T00:43:02;23.08;;;23.04;;
71172;SDS011;58875;51.996;4.504;2023-03-01T00:45:28;23.18;;;23.10;;
71172;SDS011;58875;51.996;4.504;2023-03-01T00:47:56;23.16;;;23.13;;
71172;SDS011;58875;51.996;4.504;2023-03-01T00:50:22;23.14;;;23.05;;
71172;SDS011;58875;51.996;4.504;2023-03-01T00:52:51;22.49;;;22.38;;
71172;SDS011;58875;51.996;4.504;2023-03-01T00:55:24;22.40;;;22.30;;
71172;SDS011;58875;51.996;4.504;2023-03-01T00:57:51;22.24;;;22.16;;
71172;SDS011;58875;51.996;4.504;2023-03-01T01:00:17;21.51;;;21.47;;
71172;SDS011;58875;51.996;4.504;2023-03-01T01:02:44;21.74;;;21.69;;
71172;SDS011;58875;51.996;4.504;2023-03-01T01:05:13;21.03;;;21.03;;
71172;SDS011;58875;51.996;4.504;2023-03-01T01:07:46;21.52;;;21.48;;
71172;SDS011;58875;51.996;4.504;2023-03-01T01:10:14;21.25;;;21.22;;
71172;SDS011;58875;51.996;4.504;2023-03-01T01:12:43;21.78;;;21.75;;
71172;SDS011;58875;51.996;4.504;2023-03-01T01:15:20;21.56;;;21.53;;
71172;SDS011;58875;51.996;4.504;2023-03-01T01:17:45;22.74;;;22.60;;
71172;SDS011;58875;51.996;4.504;2023-03-01T01:20:11;22.01;;;22.01;;
71172;SDS011;58875;51.996;4.504;2023-03-01T01:22:37;22.52;;;22.32;;
71172;SDS011;58875;51.996;4.504;2023-03-01T01:25:03;22.25;;;22.18;;
71172;SDS011;58875;51.996;4.504;2023-03-01T01:27:29;23.06;;;22.84;;
71172;SDS011;58875;51.996;4.504;2023-03-01T01:29:55;23.40;;;23.13;;
71172;SDS011;58875;51.996;4.504;2023-03-01T01:32:20;23.76;;;23.54;;
71172;SDS011;58875;51.996;4.504;2023-03-01T01:34:46;24.26;;;24.14;;
71172;SDS011;58875;51.996;4.504;2023-03-01T01:37:11;24.23;;;24.15;;
71172;SDS011;58875;51.996;4.504;2023-03-01T01:39:37;23.87;;;23.79;;
71172;SDS011;58875;51.996;4.504;2023-03-01T01:42:02;24.33;;;24.11;;
71172;SDS011;58875;51.996;4.504;2023-03-01T01:44:28;23.11;;;22.95;;
71172;SDS011;58875;51.996;4.504;2023-03-01T01:47:02;23.29;;;23.08;;
71172;SDS011;58875;51.996;4.504;2023-03-01T01:49:45;23.36;;;23.21;;
71172;SDS011;58875;51.996;4.504;2023-03-01T01:52:16;24.49;;;24.37;;
71172;SDS011;58875;51.996;4.504;2023-03-01T01:57:26;24.51;;;24.17;;
71172;SDS011;58875;51.996;4.504;2023-03-01T02:00:00;24.47;;;24.31;;
71172;SDS011;58875;51.996;4.504;2023-03-01T02:02:31;24.99;;;24.76;;
71172;SDS011;58875;51.996;4.504;2023-03-01T02:05:02;25.34;;;25.11;;
71172;SDS011;58875;51.996;4.504;2023-03-01T02:07:50;24.67;;;24.54;;
71172;SDS011;58875;51.996;4.504;2023-03-01T02:10:16;25.39;;;25.11;;
71172;SDS011;58875;51.996;4.504;2023-03-01T02:12:42;25.15;;;24.96;;
71172;SDS011;58875;51.996;4.504;2023-03-01T02:15:08;26.28;;;26.09;;
71172;SDS011;58875;51.996;4.504;2023-03-01T02:17:34;25.83;;;25.37;;
71172;SDS011;58875;51.996;4.504;2023-03-01T02:22:41;24.57;;;24.32;;
71172;SDS011;58875;51.996;4.504;2023-03-01T02:30:49;24.12;;;23.93;;
71172;SDS011;58875;51.996;4.504;2023-03-01T02:33:37;24.34;;;23.91;;
71172;SDS011;58875;51.996;4.504;2023-03-01T02:36:18;24.34;;;23.94;;
71172;SDS011;58875;51.996;4.504;2023-03-01T02:38:58;24.07;;;23.67;;
71172;SDS011;58875;51.996;4.504;2023-03-01T02:41:28;24.35;;;23.79;;
71172;SDS011;58875;51.996;4.504;2023-03-01T02:43:59;24.10;;;23.80;;
71172;SDS011;58875;51.996;4.504;2023-03-01T02:46:27;23.71;;;23.53;;
71172;SDS011;58875;51.996;4.504;2023-03-01T02:48:56;25.22;;;24.62;;
71172;SDS011;58875;51.996;4.504;2023-03-01T02:56:52;23.30;;;23.04;;
71172;SDS011;58875;51.996;4.504;2023-03-01T02:59:19;24.02;;;23.83;;
71172;SDS011;58875;51.996;4.504;2023-03-01T03:01:47;25.05;;;24.71;;
71172;SDS011;58875;51.996;4.504;2023-03-01T03:04:14;26.08;;;25.64;;
71172;SDS011;58875;51.996;4.504;2023-03-01T03:06:46;27.11;;;26.64;;
71172;SDS011;58875;51.996;4.504;2023-03-01T03:09:14;26.88;;;26.44;;
71172;SDS011;58875;51.996;4.504;2023-03-01T03:11:41;27.88;;;27.32;;
71172;SDS011;58875;51.996;4.504;2023-03-01T03:14:11;28.71;;;28.20;;
71172;SDS011;58875;51.996;4.504;2023-03-01T03:16:42;28.37;;;27.97;;
71172;SDS011;58875;51.996;4.504;2023-03-01T03:19:13;28.92;;;28.32;;
71172;SDS011;58875;51.996;4.504;2023-03-01T03:21:39;27.22;;;26.92;;
71172;SDS011;58875;51.996;4.504;2023-03-01T03:24:08;27.71;;;27.26;;
71172;SDS011;58875;51.996;4.504;2023-03-01T03:26:43;28.45;;;28.28;;
71172;SDS011;58875;51.996;4.504;2023-03-01T03:29:08;28.16;;;27.94;;
71172;SDS011;58875;51.996;4.504;2023-03-01T03:31:34;29.07;;;28.66;;
71172;SDS011;58875;51.996;4.504;2023-03-01T03:33:59;29.88;;;29.08;;
71172;SDS011;58875;51.996;4.504;2023-03-01T03:36:25;28.73;;;28.19;;
71172;SDS011;58875;51.996;4.504;2023-03-01T03:38:51;29.22;;;28.80;;
71172;SDS011;58875;51.996;4.504;2023-03-01T03:41:16;29.80;;;29.16;;
71172;SDS011;58875;51.996;4.504;2023-03-01T03:43:43;28.03;;;27.49;;
71172;SDS011;58875;51.996;4.504;2023-03-01T03:46:09;28.29;;;27.53;;
71172;SDS011;58875;51.996;4.504;2023-03-01T03:48:40;27.38;;;26.88;;
71172;SDS011;58875;51.996;4.504;2023-03-01T03:51:09;27.60;;;27.26;;
71172;SDS011;58875;51.996;4.504;2023-03-01T03:53:36;27.16;;;26.84;;
71172;SDS011;58875;51.996;4.504;2023-03-01T03:56:04;27.65;;;27.26;;
71172;SDS011;58875;51.996;4.504;2023-03-01T03:58:30;27.64;;;27.22;;
71172;SDS011;58875;51.996;4.504;2023-03-01T04:00:56;27.64;;;27.09;;
71172;SDS011;58875;51.996;4.504;2023-03-01T04:03:23;27.76;;;27.28;;
71172;SDS011;58875;51.996;4.504;2023-03-01T04:05:51;27.56;;;27.18;;
71172;SDS011;58875;51.996;4.504;2023-03-01T04:08:17;27.85;;;27.38;;
71172;SDS011;58875;51.996;4.504;2023-03-01T04:10:47;28.18;;;27.58;;
71172;SDS011;58875;51.996;4.504;2023-03-01T04:13:18;28.01;;;27.52;;
71172;SDS011;58875;51.996;4.504;2023-03-01T04:15:46;27.66;;;26.95;;
71172;SDS011;58875;51.996;4.504;2023-03-01T04:18:14;26.95;;;26.53;;
71172;SDS011;58875;51.996;4.504;2023-03-01T04:20:41;27.22;;;26.79;;
71172;SDS011;58875;51.996;4.504;2023-03-01T04:23:10;27.26;;;26.75;;
71172;SDS011;58875;51.996;4.504;2023-03-01T04:25:41;26.67;;;26.31;;
71172;SDS011;58875;51.996;4.504;2023-03-01T04:28:14;27.65;;;27.25;;
71172;SDS011;58875;51.996;4.504;2023-03-01T04:30:41;28.47;;;28.11;;
71172;SDS011;58875;51.996;4.504;2023-03-01T04:33:07;28.77;;;28.17;;
71172;SDS011;58875;51.996;4.504;2023-03-01T04:35:34;29.68;;;28.85;;
71172;SDS011;58875;51.996;4.504;2023-03-01T04:38:01;29.43;;;28.55;;
71172;SDS011;58875;51.996;4.504;2023-03-01T04:40:27;31.98;;;30.37;;
71172;SDS011;58875;51.996;4.504;2023-03-01T04:42:52;29.68;;;28.82;;
71172;SDS011;58875;51.996;4.504;2023-03-01T04:45:18;29.36;;;28.39;;
71172;SDS011;58875;51.996;4.504;2023-03-01T04:47:45;28.47;;;27.86;;
71172;SDS011;58875;51.996;4.504;2023-03-01T04:50:12;28.51;;;27.70;;
71172;SDS011;58875;51.996;4.504;2023-03-01T04:52:45;27.98;;;27.10;;
71172;SDS011;58875;51.996;4.504;2023-03-01T04:55:18;27.04;;;26.35;;
71172;SDS011;58875;51.996;4.504;2023-03-01T04:57:43;26.27;;;25.86;;
71172;SDS011;58875;51.996;4.504;2023-03-01T05:00:13;26.53;;;25.96;;
71172;SDS011;58875;51.996;4.504;2023-03-01T05:08:02;31.49;;;29.47;;
71172;SDS011;58875;51.996;4.504;2023-03-01T05:10:38;27.72;;;27.09;;
71172;SDS011;58875;51.996;4.504;2023-03-01T05:13:04;26.50;;;26.12;;
71172;SDS011;58875;51.996;4.504;2023-03-01T05:15:30;26.60;;;26.15;;
71172;SDS011;58875;51.996;4.504;2023-03-01T05:17:57;26.15;;;25.54;;
71172;SDS011;58875;51.996;4.504;2023-03-01T05:20:33;26.44;;;26.10;;
71172;SDS011;58875;51.996;4.504;2023-03-01T05:23:02;24.67;;;24.46;;
71172;SDS011;58875;51.996;4.504;2023-03-01T05:25:30;25.89;;;25.42;;
71172;SDS011;58875;51.996;4.504;2023-03-01T05:27:59;25.33;;;25.14;;
71172;SDS011;58875;51.996;4.504;2023-03-01T05:30:35;25.66;;;25.18;;
71172;SDS011;58875;51.996;4.504;2023-03-01T05:33:03;25.02;;;24.66;;
71172;SDS011;58875;51.996;4.504;2023-03-01T05:35:29;25.75;;;25.12;;
71172;SDS011;58875;51.996;4.504;2023-03-01T05:37:57;25.47;;;25.08;;
71172;SDS011;58875;51.996;4.504;2023-03-01T05:40:23;25.51;;;25.06;;
71172;SDS011;58875;51.996;4.504;2023-03-01T05:42:53;25.42;;;24.95;;
71172;SDS011;58875;51.996;4.504;2023-03-01T05:45:20;25.81;;;25.40;;
71172;SDS011;58875;51.996;4.504;2023-03-01T05:47:48;25.95;;;25.61;;
71172;SDS011;58875;51.996;4.504;2023-03-01T05:50:16;25.13;;;24.97;;
71172;SDS011;58875;51.996;4.504;2023-03-01T05:52:48;25.76;;;25.54;;
71172;SDS011;58875;51.996;4.504;2023-03-01T05:55:16;25.31;;;24.91;;
71172;SDS011;58875;51.996;4.504;2023-03-01T05:57:43;25.45;;;24.91;;
71172;SDS011;58875;51.996;4.504;2023-03-01T06:00:09;24.92;;;24.65;;
71172;SDS011;58875;51.996;4.504;2023-03-01T06:02:35;24.96;;;24.68;;
71172;SDS011;58875;51.996;4.504;2023-03-01T06:05:01;24.82;;;24.59;;
71172;SDS011;58875;51.996;4.504;2023-03-01T06:07:27;24.25;;;24.13;;
71172;SDS011;58875;51.996;4.504;2023-03-01T06:09:53;24.38;;;24.16;;
71172;SDS011;58875;51.996;4.504;2023-03-01T06:12:18;25.39;;;24.87;;
71172;SDS011;58875;51.996;4.504;2023-03-01T06:14:45;25.03;;;24.57;;
71172;SDS011;58875;51.996;4.504;2023-03-01T06:17:12;24.87;;;24.53;;
71172;SDS011;58875;51.996;4.504;2023-03-01T06:19:38;24.93;;;24.44;;
71172;SDS011;58875;51.996;4.504;2023-03-01T06:22:07;24.91;;;24.70;;
71172;SDS011;58875;51.996;4.504;2023-03-01T06:24:33;24.67;;;24.34;;
71172;SDS011;58875;51.996;4.504;2023-03-01T06:26:59;24.40;;;24.14;;
71172;SDS011;58875;51.996;4.504;2023-03-01T06:29:25;24.70;;;24.51;;
71172;SDS011;58875;51.996;4.504;2023-03-01T06:31:50;24.90;;;24.62;;
71172;SDS011;58875;51.996;4.504;2023-03-01T06:34:16;25.36;;;24.84;;
71172;SDS011;58875;51.996;4.504;2023-03-01T06:36:41;24.34;;;24.19;;
71172;SDS011;58875;51.996;4.504;2023-03-01T06:39:07;24.60;;;24.34;;
71172;SDS011;58875;51.996;4.504;2023-03-01T06:41:32;25.51;;;25.14;;
71172;SDS011;58875;51.996;4.504;2023-03-01T06:43:59;24.95;;;24.80;;
71172;SDS011;58875;51.996;4.504;2023-03-01T06:46:25;25.73;;;25.48;;
71172;SDS011;58875;51.996;4.504;2023-03-01T06:48:50;25.62;;;25.36;;
71172;SDS011;58875;51.996;4.504;2023-03-01T06:51:16;25.05;;;24.78;;
71172;SDS011;58875;51.996;4.504;2023-03-01T06:53:41;25.04;;;24.96;;
71172;SDS011;58875;51.996;4.504;2023-03-01T06:56:07;25.96;;;25.74;;
71172;SDS011;58875;51.996;4.504;2023-03-01T06:58:33;26.19;;;25.75;;
71172;SDS011;58875;51.996;4.504;2023-03-01T07:01:05;25.50;;;24.96;;
71172;SDS011;58875;51.996;4.504;2023-03-01T07:03:31;25.62;;;25.03;;
71172;SDS011;58875;51.996;4.504;2023-03-01T07:05:57;25.30;;;25.06;;
71172;SDS011;58875;51.996;4.504;2023-03-01T07:08:22;24.60;;;24.43;;
71172;SDS011;58875;51.996;4.504;2023-03-01T07:10:48;25.36;;;24.96;;
71172;SDS011;58875;51.996;4.504;2023-03-01T07:13:13;25.38;;;25.06;;
71172;SDS011;58875;51.996;4.504;2023-03-01T07:15:39;25.07;;;24.78;;
71172;SDS011;58875;51.996;4.504;2023-03-01T07:18:08;25.25;;;25.11;;
71172;SDS011;58875;51.996;4.504;2023-03-01T07:20:34;25.18;;;24.87;;
71172;SDS011;58875;51.996;4.504;2023-03-01T07:23:02;25.49;;;24.98;;
71172;SDS011;58875;51.996;4.504;2023-03-01T07:25:27;25.14;;;24.83;;
71172;SDS011;58875;51.996;4.504;2023-03-01T07:27:53;25.90;;;25.54;;
71172;SDS011;58875;51.996;4.504;2023-03-01T07:30:19;24.80;;;24.53;;
71172;SDS011;58875;51.996;4.504;2023-03-01T07:32:46;25.92;;;25.68;;
71172;SDS011;58875;51.996;4.504;2023-03-01T07:35:11;26.74;;;26.37;;
71172;SDS011;58875;51.996;4.504;2023-03-01T07:37:37;26.50;;;26.11;;
71172;SDS011;58875;51.996;4.504;2023-03-01T07:40:06;27.85;;;27.58;;
71172;SDS011;58875;51.996;4.504;2023-03-01T07:42:32;27.82;;;27.56;;
71172;SDS011;58875;51.996;4.504;2023-03-01T07:44:58;30.01;;;29.64;;
71172;SDS011;58875;51.996;4.504;2023-03-01T07:47:23;29.77;;;29.45;;
71172;SDS011;58875;51.996;4.504;2023-03-01T07:49:49;27.58;;;27.44;;
71172;SDS011;58875;51.996;4.504;2023-03-01T07:52:14;28.39;;;28.11;;
71172;SDS011;58875;51.996;4.504;2023-03-01T07:54:42;28.05;;;27.71;;
71172;SDS011;58875;51.996;4.504;2023-03-01T07:57:11;27.05;;;26.81;;
71172;SDS011;58875;51.996;4.504;2023-03-01T07:59:37;27.09;;;26.89;;
71172;SDS011;58875;51.996;4.504;2023-03-01T08:02:02;26.72;;;26.61;;
71172;SDS011;58875;51.996;4.504;2023-03-01T08:04:28;26.18;;;25.99;;
71172;SDS011;58875;51.996;4.504;2023-03-01T08:06:54;25.75;;;25.68;;
71172;SDS011;58875;51.996;4.504;2023-03-01T08:09:20;25.74;;;25.66;;
71172;SDS011;58875;51.996;4.504;2023-03-01T08:11:46;26.67;;;26.61;;
71172;SDS011;58875;51.996;4.504;2023-03-01T08:14:12;26.24;;;26.04;;
71172;SDS011;58875;51.996;4.504;2023-03-01T08:16:37;25.83;;;25.57;;
71172;SDS011;58875;51.996;4.504;2023-03-01T08:19:10;25.64;;;25.43;;
71172;SDS011;58875;51.996;4.504;2023-03-01T08:21:37;25.02;;;24.93;;
71172;SDS011;58875;51.996;4.504;2023-03-01T08:24:04;25.43;;;25.09;;
71172;SDS011;58875;51.996;4.504;2023-03-01T08:26:31;25.30;;;25.08;;
71172;SDS011;58875;51.996;4.504;2023-03-01T08:28:57;24.26;;;24.16;;
71172;SDS011;58875;51.996;4.504;2023-03-01T08:31:24;23.96;;;23.74;;
71172;SDS011;58875;51.996;4.504;2023-03-01T08:33:59;24.20;;;24.18;;
71172;SDS011;58875;51.996;4.504;2023-03-01T08:36:28;22.72;;;22.68;;
71172;SDS011;58875;51.996;4.504;2023-03-01T08:38:55;22.03;;;22.03;;
71172;SDS011;58875;51.996;4.504;2023-03-01T08:41:21;21.23;;;21.03;;
71172;SDS011;58875;51.996;4.504;2023-03-01T08:43:47;20.82;;;20.81;;
71172;SDS011;58875;51.996;4.504;2023-03-01T08:46:13;21.14;;;20.97;;
71172;SDS011;58875;51.996;4.504;2023-03-01T08:48:39;19.21;;;19.20;;
71172;SDS011;58875;51.996;4.504;2023-03-01T08:51:27;19.41;;;19.39;;
71172;SDS011;58875;51.996;4.504;2023-03-01T08:54:00;18.32;;;18.32;;
71172;SDS011;58875;51.996;4.504;2023-03-01T08:56:52;19.18;;;19.10;;
71172;SDS011;58875;51.996;4.504;2023-03-01T08:59:17;19.53;;;19.49;;
71172;SDS011;58875;51.996;4.504;2023-03-01T09:01:43;19.73;;;19.71;;
71172;SDS011;58875;51.996;4.504;2023-03-01T09:04:15;19.49;;;19.44;;
71172;SDS011;58875;51.996;4.504;2023-03-01T09:06:42;19.59;;;19.51;;
71172;SDS011;58875;51.996;4.504;2023-03-01T09:09:15;19.01;;;18.96;;
71172;SDS011;58875;51.996;4.504;2023-03-01T09:11:42;19.08;;;19.04;;
71172;SDS011;58875;51.996;4.504;2023-03-01T09:14:11;18.43;;;18.38;;
71172;SDS011;58875;51.996;4.504;2023-03-01T09:16:37;19.00;;;18.59;;
71172;SDS011;58875;51.996;4.504;2023-03-01T09:19:03;17.99;;;17.86;;
71172;SDS011;58875;51.996;4.504;2023-03-01T09:21:29;18.63;;;18.54;;
71172;SDS011;58875;51.996;4.504;2023-03-01T09:23:55;18.62;;;18.54;;
71172;SDS011;58875;51.996;4.504;2023-03-01T09:26:23;18.05;;;18.04;;
71172;SDS011;58875;51.996;4.504;2023-03-01T09:28:58;16.11;;;16.10;;
71172;SDS011;58875;51.996;4.504;2023-03-01T09:31:24;15.41;;;15.41;;
71172;SDS011;58875;51.996;4.504;2023-03-01T09:33:50;16.54;;;16.54;;
71172;SDS011;58875;51.996;4.504;2023-03-01T09:36:23;15.52;;;15.50;;
71172;SDS011;58875;51.996;4.504;2023-03-01T09:39:03;15.73;;;15.68;;
71172;SDS011;58875;51.996;4.504;2023-03-01T09:44:23;15.29;;;15.25;;
71172;SDS011;58875;51.996;4.504;2023-03-01T09:47:09;15.90;;;15.89;;
71172;SDS011;58875;51.996;4.504;2023-03-01T09:49:56;13.51;;;13.50;;
71172;SDS011;58875;51.996;4.504;2023-03-01T09:52:41;13.94;;;13.88;;
71172;SDS011;58875;51.996;4.504;2023-03-01T09:55:54;13.77;;;13.71;;
71172;SDS011;58875;51.996;4.504;2023-03-01T10:01:28;13.32;;;13.32;;
71172;SDS011;58875;51.996;4.504;2023-03-01T10:09:53;11.82;;;11.80;;
71172;SDS011;58875;51.996;4.504;2023-03-01T10:12:20;10.89;;;10.89;;
71172;SDS011;58875;51.996;4.504;2023-03-01T10:14:54;10.34;;;10.34;;
71172;SDS011;58875;51.996;4.504;2023-03-01T10:17:30;10.63;;;10.63;;
71172;SDS011;58875;51.996;4.504;2023-03-01T10:29:12;10.38;;;10.38;;
71172;SDS011;58875;51.996;4.504;2023-03-01T10:31:45;10.49;;;10.49;;
71172;SDS011;58875;51.996;4.504;2023-03-01T10:36:45;10.15;;;10.15;;
71172;SDS011;58875;51.996;4.504;2023-03-01T10:39:21;9.62;;;9.59;;
71172;SDS011;58875;51.996;4.504;2023-03-01T10:41:59;9.33;;;9.33;;
71172;SDS011;58875;51.996;4.504;2023-03-01T10:48:02;9.92;;;9.92;;
71172;SDS011;58875;51.996;4.504;2023-03-01T10:50:33;9.77;;;9.77;;
71172;SDS011;58875;51.996;4.504;2023-03-01T10:55:48;10.83;;;10.83;;
71172;SDS011;58875;51.996;4.504;2023-03-01T10:58:24;11.68;;;11.66;;
71172;SDS011;58875;51.996;4.504;2023-03-01T11:00:56;12.99;;;12.83;;
71172;SDS011;58875;51.996;4.504;2023-03-01T11:03:33;12.48;;;12.46;;
71172;SDS011;58875;51.996;4.504;2023-03-01T11:08:43;12.73;;;12.72;;
71172;SDS011;58875;51.996;4.504;2023-03-01T11:16:44;11.97;;;11.97;;
71172;SDS011;58875;51.996;4.504;2023-03-01T11:19:15;12.80;;;12.80;;
71172;SDS011;58875;51.996;4.504;2023-03-01T11:21:50;13.33;;;13.33;;
71172;SDS011;58875;51.996;4.504;2023-03-01T11:25:20;13.47;;;13.44;;
71172;SDS011;58875;51.996;4.504;2023-03-01T11:27:36;14.29;;;14.29;;
71172;SDS011;58875;51.996;4.504;2023-03-01T11:30:26;14.56;;;14.53;;
71172;SDS011;58875;51.996;4.504;2023-03-01T11:45:10;14.68;;;14.66;;
71172;SDS011;58875;51.996;4.504;2023-03-01T11:50:48;14.35;;;14.33;;
71172;SDS011;58875;51.996;4.504;2023-03-01T11:56:22;15.25;;;15.23;;
71172;SDS011;58875;51.996;4.504;2023-03-01T12:10:20;15.20;;;15.11;;
71172;SDS011;58875;51.996;4.504;2023-03-01T12:24:39;15.42;;;15.25;;
71172;SDS011;58875;51.996;4.504;2023-03-01T12:27:46;17.01;;;16.88;;
71172;SDS011;58875;51.996;4.504;2023-03-01T12:33:39;16.11;;;16.07;;
71172;SDS011;58875;51.996;4.504;2023-03-01T12:36:27;16.01;;;15.94;;
71172;SDS011;58875;51.996;4.504;2023-03-01T12:42:20;15.19;;;15.11;;
71172;SDS011;58875;51.996;4.504;2023-03-01T12:50:47;14.34;;;14.22;;
71172;SDS011;58875;51.996;4.504;2023-03-01T12:53:22;13.82;;;13.78;;
71172;SDS011;58875;51.996;4.504;2023-03-01T12:55:52;13.63;;;13.52;;
71172;SDS011;58875;51.996;4.504;2023-03-01T12:58:36;13.16;;;13.14;;
71172;SDS011;58875;51.996;4.504;2023-03-01T13:17:47;10.32;;;10.27;;
71172;SDS011;58875;51.996;4.504;2023-03-01T13:20:18;9.82;;;9.72;;
71172;SDS011;58875;51.996;4.504;2023-03-01T13:23:00;10.24;;;10.19;;
71172;SDS011;58875;51.996;4.504;2023-03-01T13:25:59;10.67;;;10.50;;
71172;SDS011;58875;51.996;4.504;2023-03-01T13:33:41;9.26;;;9.25;;
71172;SDS011;58875;51.996;4.504;2023-03-01T13:36:16;9.13;;;9.13;;
71172;SDS011;58875;51.996;4.504;2023-03-01T13:38:57;9.32;;;9.32;;
71172;SDS011;58875;51.996;4.504;2023-03-01T13:44:24;8.93;;;8.93;;
71172;SDS011;58875;51.996;4.504;2023-03-01T13:52:45;9.70;;;9.70;;
71172;SDS011;58875;51.996;4.504;2023-03-01T13:55:23;9.49;;;9.49;;
71172;SDS011;58875;51.996;4.504;2023-03-01T13:57:55;9.05;;;9.05;;
71172;SDS011;58875;51.996;4.504;2023-03-01T14:01:06;9.33;;;9.33;;
71172;SDS011;58875;51.996;4.504;2023-03-01T14:03:19;9.04;;;9.04;;
71172;SDS011;58875;51.996;4.504;2023-03-01T14:08:32;9.02;;;9.02;;
71172;SDS011;58875;51.996;4.504;2023-03-01T14:14:23;9.55;;;9.52;;
71172;SDS011;58875;51.996;4.504;2023-03-01T14:20:26;9.38;;;9.32;;
71172;SDS011;58875;51.996;4.504;2023-03-01T14:22:55;8.82;;;8.82;;
71172;SDS011;58875;51.996;4.504;2023-03-01T14:27:55;8.61;;;8.60;;
71172;SDS011;58875;51.996;4.504;2023-03-01T14:30:26;8.97;;;8.97;;
71172;SDS011;58875;51.996;4.504;2023-03-01T14:33:00;9.20;;;9.20;;
71172;SDS011;58875;51.996;4.504;2023-03-01T14:35:30;9.27;;;9.27;;
71172;SDS011;58875;51.996;4.504;2023-03-01T14:37:57;9.34;;;9.34;;
71172;SDS011;58875;51.996;4.504;2023-03-01T14:40:25;9.58;;;9.58;;
71172;SDS011;58875;51.996;4.504;2023-03-01T14:42:51;9.20;;;9.20;;
71172;SDS011;58875;51.996;4.504;2023-03-01T14:45:19;9.11;;;9.11;;
71172;SDS011;58875;51.996;4.504;2023-03-01T14:47:45;8.79;;;8.79;;
71172;SDS011;58875;51.996;4.504;2023-03-01T14:52:45;8.65;;;8.65;;
71172;SDS011;58875;51.996;4.504;2023-03-01T14:55:16;8.61;;;8.61;;
71172;SDS011;58875;51.996;4.504;2023-03-01T14:58:05;8.77;;;8.77;;
71172;SDS011;58875;51.996;4.504;2023-03-01T15:00:37;8.99;;;8.99;;
71172;SDS011;58875;51.996;4.504;2023-03-01T15:03:16;8.90;;;8.90;;
71172;SDS011;58875;51.996;4.504;2023-03-01T15:05:49;8.64;;;8.64;;
71172;SDS011;58875;51.996;4.504;2023-03-01T15:08:21;8.58;;;8.58;;
71172;SDS011;58875;51.996;4.504;2023-03-01T15:10:57;8.41;;;8.41;;
71172;SDS011;58875;51.996;4.504;2023-03-01T15:13:26;7.71;;;7.71;;
71172;SDS011;58875;51.996;4.504;2023-03-01T15:16:02;8.28;;;8.28;;
71172;SDS011;58875;51.996;4.504;2023-03-01T15:18:36;8.47;;;8.47;;
71172;SDS011;58875;51.996;4.504;2023-03-01T15:21:29;8.31;;;8.31;;
71172;SDS011;58875;51.996;4.504;2023-03-01T15:26:57;8.28;;;8.28;;
71172;SDS011;58875;51.996;4.504;2023-03-01T15:29:30;7.98;;;7.98;;
71172;SDS011;58875;51.996;4.504;2023-03-01T15:34:25;7.64;;;7.64;;
71172;SDS011;58875;51.996;4.504;2023-03-01T15:36:58;7.84;;;7.84;;
71172;SDS011;58875;51.996;4.504;2023-03-01T15:39:37;8.00;;;8.00;;
71172;SDS011;58875;51.996;4.504;2023-03-01T15:42:10;7.83;;;7.83;;
71172;SDS011;58875;51.996;4.504;2023-03-01T15:47:43;8.31;;;8.30;;
71172;SDS011;58875;51.996;4.504;2023-03-01T15:50:16;8.23;;;8.23;;
71172;SDS011;58875;51.996;4.504;2023-03-01T15:52:47;8.80;;;8.80;;
71172;SDS011;58875;51.996;4.504;2023-03-01T15:55:19;8.96;;;8.96;;
71172;SDS011;58875;51.996;4.504;2023-03-01T15:58:15;9.06;;;9.06;;
71172;SDS011;58875;51.996;4.504;2023-03-01T16:00:44;8.90;;;8.90;;
71172;SDS011;58875;51.996;4.504;2023-03-01T16:03:12;8.72;;;8.72;;
71172;SDS011;58875;51.996;4.504;2023-03-01T16:05:38;9.10;;;9.10;;
71172;SDS011;58875;51.996;4.504;2023-03-01T16:08:06;9.14;;;9.14;;
71172;SDS011;58875;51.996;4.504;2023-03-01T16:10:33;9.42;;;9.42;;
71172;SDS011;58875;51.996;4.504;2023-03-01T16:13:00;9.16;;;9.16;;
71172;SDS011;58875;51.996;4.504;2023-03-01T16:15:26;9.11;;;9.11;;
71172;SDS011;58875;51.996;4.504;2023-03-01T16:20:43;9.22;;;9.22;;
71172;SDS011;58875;51.996;4.504;2023-03-01T16:23:09;9.65;;;9.65;;
71172;SDS011;58875;51.996;4.504;2023-03-01T16:25:36;9.53;;;9.53;;
71172;SDS011;58875;51.996;4.504;2023-03-01T16:28:02;9.08;;;9.08;;
71172;SDS011;58875;51.996;4.504;2023-03-01T16:30:37;9.53;;;9.53;;
71172;SDS011;58875;51.996;4.504;2023-03-01T16:33:05;9.30;;;9.28;;
71172;SDS011;58875;51.996;4.504;2023-03-01T16:35:51;9.29;;;9.28;;
71172;SDS011;58875;51.996;4.504;2023-03-01T16:38:19;9.60;;;9.60;;
71172;SDS011;58875;51.996;4.504;2023-03-01T16:40:49;9.42;;;9.42;;
71172;SDS011;58875;51.996;4.504;2023-03-01T16:43:19;9.41;;;9.41;;
71172;SDS011;58875;51.996;4.504;2023-03-01T16:45:47;9.54;;;9.54;;
71172;SDS011;58875;51.996;4.504;2023-03-01T16:48:13;9.38;;;9.38;;
71172;SDS011;58875;51.996;4.504;2023-03-01T16:50:39;10.15;;;10.15;;
71172;SDS011;58875;51.996;4.504;2023-03-01T16:53:05;9.34;;;9.34;;
71172;SDS011;58875;51.996;4.504;2023-03-01T16:55:31;9.80;;;9.80;;
71172;SDS011;58875;51.996;4.504;2023-03-01T16:57:56;9.77;;;9.77;;
71172;SDS011;58875;51.996;4.504;2023-03-01T17:00:22;9.68;;;9.68;;
71172;SDS011;58875;51.996;4.504;2023-03-01T17:02:51;9.92;;;9.91;;
71172;SDS011;58875;51.996;4.504;2023-03-01T17:05:18;9.94;;;9.94;;
71172;SDS011;58875;51.996;4.504;2023-03-01T17:07:48;9.84;;;9.84;;
71172;SDS011;58875;51.996;4.504;2023-03-01T17:10:27;10.31;;;10.29;;
71172;SDS011;58875;51.996;4.504;2023-03-01T17:12:52;10.13;;;10.08;;
71172;SDS011;58875;51.996;4.504;2023-03-01T17:15:18;9.95;;;9.88;;
71172;SDS011;58875;51.996;4.504;2023-03-01T17:17:44;10.37;;;10.30;;
71172;SDS011;58875;51.996;4.504;2023-03-01T17:20:09;10.40;;;10.39;;
71172;SDS011;58875;51.996;4.504;2023-03-01T17:22:35;10.10;;;10.09;;
71172;SDS011;58875;51.996;4.504;2023-03-01T17:25:01;10.10;;;10.10;;
71172;SDS011;58875;51.996;4.504;2023-03-01T17:27:27;10.08;;;10.06;;
71172;SDS011;58875;51.996;4.504;2023-03-01T17:29:53;10.68;;;10.68;;
71172;SDS011;58875;51.996;4.504;2023-03-01T17:32:19;10.60;;;10.60;;